Etusivu
METAR-TAF:

METAR-TAF

Lentoasemat :

Atar, Mauritania

Leveyspiiri: 20-30-24N, Pituuspiiri: 013-02-35W, korkeus merenpinnasta: 231 m

Tämänhetkinen sää

Tämä raportti tehtiin 9 tuntia ja 33 minuuttia sitten, kello 18.00 UTC
Tuuli 12 kn idästä
Lämpötila 34°C
Kosteus 13%
Ilmanpaine 1015 hPa
Näkyvyys: 7000 m

METAR: GQPA 261800Z 08012KT 7000 NSC 34/02 Q1015

Aika: 03:33 (03:33 UTC)


TAF: puuttuu

Säähavainnot ja -ennusteet yli 4000 lentoasemalta (METAR- ja TAF-raportit).

Käytössä olevat sääasemat on merkitty karttaan keltaisilla ja punaisilla pisteillä.

Aseta hiiri pisteen päälle nähdäksesi sääaseman nimen.

Klikkaa sitten nähdäksesi säähavainnot ja -ennusteet.

Kartan vaihtaminen: klikkaa mustalla rastilla varustettuja vihreitä pisteitä, niin voit zoomata sisään; viivalla varustettua vihreää pistettä, niin voit zoomata ulos tai vihreitä nuolia, niin pääset viereisille kartoille.


METAR-TAF: